sensor_id;sensor_type;location;lat;lon;timestamp;P1;durP1;ratioP1;P2;durP2;ratioP2
11535;SDS011;5824;49.336;8.652;2023-03-01T00:00:45;16.20;;;10.40;;
11535;SDS011;5824;49.336;8.652;2023-03-01T00:03:11;15.50;;;10.20;;
11535;SDS011;5824;49.336;8.652;2023-03-01T00:05:43;21.53;;;9.70;;
11535;SDS011;5824;49.336;8.652;2023-03-01T00:08:11;13.80;;;9.30;;
11535;SDS011;5824;49.336;8.652;2023-03-01T00:10:37;16.97;;;10.10;;
11535;SDS011;5824;49.336;8.652;2023-03-01T00:13:02;18.20;;;10.87;;
11535;SDS011;5824;49.336;8.652;2023-03-01T00:15:30;15.53;;;9.53;;
11535;SDS011;5824;49.336;8.652;2023-03-01T00:17:56;15.30;;;9.50;;
11535;SDS011;5824;49.336;8.652;2023-03-01T00:20:22;15.67;;;9.50;;
11535;SDS011;5824;49.336;8.652;2023-03-01T00:22:47;17.60;;;9.73;;
11535;SDS011;5824;49.336;8.652;2023-03-01T00:25:13;14.17;;;9.77;;
11535;SDS011;5824;49.336;8.652;2023-03-01T00:27:38;17.57;;;9.93;;
11535;SDS011;5824;49.336;8.652;2023-03-01T00:30:04;16.43;;;10.10;;
11535;SDS011;5824;49.336;8.652;2023-03-01T00:32:30;14.90;;;9.53;;
11535;SDS011;5824;49.336;8.652;2023-03-01T00:34:55;16.00;;;10.60;;
11535;SDS011;5824;49.336;8.652;2023-03-01T00:37:21;15.90;;;9.70;;
11535;SDS011;5824;49.336;8.652;2023-03-01T00:39:48;18.37;;;10.30;;
11535;SDS011;5824;49.336;8.652;2023-03-01T00:42:14;16.17;;;10.47;;
11535;SDS011;5824;49.336;8.652;2023-03-01T00:44:39;20.03;;;10.27;;
11535;SDS011;5824;49.336;8.652;2023-03-01T00:47:05;17.37;;;10.27;;
11535;SDS011;5824;49.336;8.652;2023-03-01T00:49:30;22.00;;;10.47;;
11535;SDS011;5824;49.336;8.652;2023-03-01T00:51:56;16.70;;;10.13;;
11535;SDS011;5824;49.336;8.652;2023-03-01T00:54:22;16.70;;;10.20;;
11535;SDS011;5824;49.336;8.652;2023-03-01T00:56:47;15.50;;;10.90;;
11535;SDS011;5824;49.336;8.652;2023-03-01T00:59:13;17.67;;;10.23;;
11535;SDS011;5824;49.336;8.652;2023-03-01T01:01:38;18.37;;;10.50;;
11535;SDS011;5824;49.336;8.652;2023-03-01T01:04:08;19.10;;;10.40;;
11535;SDS011;5824;49.336;8.652;2023-03-01T01:06:36;16.20;;;10.07;;
11535;SDS011;5824;49.336;8.652;2023-03-01T01:09:04;27.33;;;10.87;;
11535;SDS011;5824;49.336;8.652;2023-03-01T01:11:31;18.43;;;10.97;;
11535;SDS011;5824;49.336;8.652;2023-03-01T01:13:58;18.40;;;9.67;;
11535;SDS011;5824;49.336;8.652;2023-03-01T01:16:24;16.73;;;10.53;;
11535;SDS011;5824;49.336;8.652;2023-03-01T01:18:51;18.83;;;11.47;;
11535;SDS011;5824;49.336;8.652;2023-03-01T01:21:18;16.40;;;10.50;;
11535;SDS011;5824;49.336;8.652;2023-03-01T01:23:46;17.83;;;10.53;;
11535;SDS011;5824;49.336;8.652;2023-03-01T01:26:14;19.47;;;12.13;;
11535;SDS011;5824;49.336;8.652;2023-03-01T01:28:42;15.80;;;10.70;;
11535;SDS011;5824;49.336;8.652;2023-03-01T01:31:08;16.57;;;10.40;;
11535;SDS011;5824;49.336;8.652;2023-03-01T01:33:34;16.20;;;11.00;;
11535;SDS011;5824;49.336;8.652;2023-03-01T01:35:59;23.13;;;11.97;;
11535;SDS011;5824;49.336;8.652;2023-03-01T01:38:25;16.23;;;10.33;;
11535;SDS011;5824;49.336;8.652;2023-03-01T01:40:57;16.73;;;10.47;;
11535;SDS011;5824;49.336;8.652;2023-03-01T01:43:24;18.03;;;10.40;;
11535;SDS011;5824;49.336;8.652;2023-03-01T01:46:02;21.70;;;10.77;;
11535;SDS011;5824;49.336;8.652;2023-03-01T01:48:38;15.70;;;10.17;;
11535;SDS011;5824;49.336;8.652;2023-03-01T01:51:07;18.07;;;10.03;;
11535;SDS011;5824;49.336;8.652;2023-03-01T01:53:38;16.13;;;10.53;;
11535;SDS011;5824;49.336;8.652;2023-03-01T01:56:05;17.57;;;10.67;;
11535;SDS011;5824;49.336;8.652;2023-03-01T01:58:33;17.63;;;11.40;;
11535;SDS011;5824;49.336;8.652;2023-03-01T02:00:59;18.53;;;11.37;;
11535;SDS011;5824;49.336;8.652;2023-03-01T02:03:27;15.50;;;10.33;;
11535;SDS011;5824;49.336;8.652;2023-03-01T02:06:01;16.00;;;11.00;;
11535;SDS011;5824;49.336;8.652;2023-03-01T02:08:37;22.73;;;11.03;;
11535;SDS011;5824;49.336;8.652;2023-03-01T02:11:06;19.63;;;11.70;;
11535;SDS011;5824;49.336;8.652;2023-03-01T02:13:33;16.60;;;10.63;;
11535;SDS011;5824;49.336;8.652;2023-03-01T02:15:59;19.93;;;11.40;;
11535;SDS011;5824;49.336;8.652;2023-03-01T02:18:28;17.20;;;10.50;;
11535;SDS011;5824;49.336;8.652;2023-03-01T02:21:03;18.23;;;11.00;;
11535;SDS011;5824;49.336;8.652;2023-03-01T02:23:48;16.87;;;10.60;;
11535;SDS011;5824;49.336;8.652;2023-03-01T02:26:20;21.37;;;11.53;;
11535;SDS011;5824;49.336;8.652;2023-03-01T02:29:07;17.80;;;11.10;;
11535;SDS011;5824;49.336;8.652;2023-03-01T02:31:32;16.70;;;9.73;;
11535;SDS011;5824;49.336;8.652;2023-03-01T02:34:08;18.37;;;10.77;;
11535;SDS011;5824;49.336;8.652;2023-03-01T02:36:37;19.97;;;11.80;;
11535;SDS011;5824;49.336;8.652;2023-03-01T02:39:06;18.43;;;11.90;;
11535;SDS011;5824;49.336;8.652;2023-03-01T02:41:39;16.87;;;10.70;;
11535;SDS011;5824;49.336;8.652;2023-03-01T02:44:07;19.27;;;11.40;;
11535;SDS011;5824;49.336;8.652;2023-03-01T02:46:33;20.40;;;11.43;;
11535;SDS011;5824;49.336;8.652;2023-03-01T02:48:58;19.90;;;12.13;;
11535;SDS011;5824;49.336;8.652;2023-03-01T02:51:42;20.20;;;11.80;;
11535;SDS011;5824;49.336;8.652;2023-03-01T02:57:06;20.50;;;11.93;;
11535;SDS011;5824;49.336;8.652;2023-03-01T02:59:33;20.67;;;12.00;;
11535;SDS011;5824;49.336;8.652;2023-03-01T03:02:04;19.23;;;11.67;;
11535;SDS011;5824;49.336;8.652;2023-03-01T03:04:31;20.40;;;11.30;;
11535;SDS011;5824;49.336;8.652;2023-03-01T03:06:56;19.30;;;11.10;;
11535;SDS011;5824;49.336;8.652;2023-03-01T03:09:22;19.00;;;11.90;;
11535;SDS011;5824;49.336;8.652;2023-03-01T03:11:48;18.37;;;10.83;;
11535;SDS011;5824;49.336;8.652;2023-03-01T03:14:14;17.13;;;11.40;;
11535;SDS011;5824;49.336;8.652;2023-03-01T03:16:41;20.90;;;11.77;;
11535;SDS011;5824;49.336;8.652;2023-03-01T03:19:08;20.07;;;10.60;;
11535;SDS011;5824;49.336;8.652;2023-03-01T03:21:34;18.70;;;10.90;;
11535;SDS011;5824;49.336;8.652;2023-03-01T03:24:00;19.60;;;11.63;;
11535;SDS011;5824;49.336;8.652;2023-03-01T03:26:26;20.20;;;11.37;;
11535;SDS011;5824;49.336;8.652;2023-03-01T03:28:51;22.50;;;12.57;;
11535;SDS011;5824;49.336;8.652;2023-03-01T03:31:17;20.67;;;11.97;;
11535;SDS011;5824;49.336;8.652;2023-03-01T03:33:43;20.10;;;11.50;;
11535;SDS011;5824;49.336;8.652;2023-03-01T03:36:08;20.80;;;11.90;;
11535;SDS011;5824;49.336;8.652;2023-03-01T03:38:38;19.37;;;11.40;;
11535;SDS011;5824;49.336;8.652;2023-03-01T03:41:05;18.77;;;11.43;;
11535;SDS011;5824;49.336;8.652;2023-03-01T03:43:33;19.90;;;12.00;;
11535;SDS011;5824;49.336;8.652;2023-03-01T03:46:00;22.50;;;12.33;;
11535;SDS011;5824;49.336;8.652;2023-03-01T03:48:30;22.77;;;11.87;;
11535;SDS011;5824;49.336;8.652;2023-03-01T03:50:57;21.10;;;12.10;;
11535;SDS011;5824;49.336;8.652;2023-03-01T03:53:24;19.57;;;11.77;;
11535;SDS011;5824;49.336;8.652;2023-03-01T03:55:51;24.03;;;12.43;;
11535;SDS011;5824;49.336;8.652;2023-03-01T03:58:18;21.13;;;12.47;;
11535;SDS011;5824;49.336;8.652;2023-03-01T04:00:45;18.40;;;11.80;;
11535;SDS011;5824;49.336;8.652;2023-03-01T04:03:13;21.40;;;12.87;;
11535;SDS011;5824;49.336;8.652;2023-03-01T04:05:40;20.50;;;12.17;;
11535;SDS011;5824;49.336;8.652;2023-03-01T04:08:06;19.23;;;12.40;;
11535;SDS011;5824;49.336;8.652;2023-03-01T04:10:34;25.13;;;13.40;;
11535;SDS011;5824;49.336;8.652;2023-03-01T04:13:05;23.27;;;13.13;;
11535;SDS011;5824;49.336;8.652;2023-03-01T04:15:32;22.63;;;12.80;;
11535;SDS011;5824;49.336;8.652;2023-03-01T04:17:59;24.13;;;13.40;;
11535;SDS011;5824;49.336;8.652;2023-03-01T04:20:26;21.73;;;12.17;;
11535;SDS011;5824;49.336;8.652;2023-03-01T04:23:00;22.07;;;12.77;;
11535;SDS011;5824;49.336;8.652;2023-03-01T04:28:10;21.47;;;11.50;;
11535;SDS011;5824;49.336;8.652;2023-03-01T04:30:36;23.60;;;12.70;;
11535;SDS011;5824;49.336;8.652;2023-03-01T04:33:03;21.50;;;12.90;;
11535;SDS011;5824;49.336;8.652;2023-03-01T04:35:30;21.37;;;12.80;;
11535;SDS011;5824;49.336;8.652;2023-03-01T04:37:56;23.67;;;14.03;;
11535;SDS011;5824;49.336;8.652;2023-03-01T04:40:22;24.03;;;12.90;;
11535;SDS011;5824;49.336;8.652;2023-03-01T04:42:47;24.40;;;12.03;;
11535;SDS011;5824;49.336;8.652;2023-03-01T04:45:13;21.47;;;12.60;;
11535;SDS011;5824;49.336;8.652;2023-03-01T04:47:39;19.80;;;12.27;;
11535;SDS011;5824;49.336;8.652;2023-03-01T04:50:06;21.63;;;12.03;;
11535;SDS011;5824;49.336;8.652;2023-03-01T04:52:32;24.23;;;12.60;;
11535;SDS011;5824;49.336;8.652;2023-03-01T04:54:58;24.60;;;13.50;;
11535;SDS011;5824;49.336;8.652;2023-03-01T04:57:23;23.77;;;12.43;;
11535;SDS011;5824;49.336;8.652;2023-03-01T04:59:49;24.30;;;13.43;;
11535;SDS011;5824;49.336;8.652;2023-03-01T05:02:14;23.70;;;13.27;;
11535;SDS011;5824;49.336;8.652;2023-03-01T05:04:40;21.10;;;13.23;;
11535;SDS011;5824;49.336;8.652;2023-03-01T05:07:05;20.63;;;12.67;;
11535;SDS011;5824;49.336;8.652;2023-03-01T05:09:31;20.77;;;12.40;;
11535;SDS011;5824;49.336;8.652;2023-03-01T05:11:57;22.30;;;12.73;;
11535;SDS011;5824;49.336;8.652;2023-03-01T05:14:22;24.73;;;14.47;;
11535;SDS011;5824;49.336;8.652;2023-03-01T05:16:48;23.57;;;13.90;;
11535;SDS011;5824;49.336;8.652;2023-03-01T05:19:13;22.13;;;12.90;;
11535;SDS011;5824;49.336;8.652;2023-03-01T05:21:42;23.30;;;13.77;;
11535;SDS011;5824;49.336;8.652;2023-03-01T05:24:26;23.00;;;13.40;;
11535;SDS011;5824;49.336;8.652;2023-03-01T05:26:53;26.50;;;14.20;;
11535;SDS011;5824;49.336;8.652;2023-03-01T05:29:20;27.53;;;12.80;;
11535;SDS011;5824;49.336;8.652;2023-03-01T05:31:50;21.47;;;12.67;;
11535;SDS011;5824;49.336;8.652;2023-03-01T05:34:18;25.73;;;12.40;;
11535;SDS011;5824;49.336;8.652;2023-03-01T05:36:47;26.40;;;14.60;;
11535;SDS011;5824;49.336;8.652;2023-03-01T05:39:13;23.83;;;13.07;;
11535;SDS011;5824;49.336;8.652;2023-03-01T05:41:38;24.03;;;12.80;;
11535;SDS011;5824;49.336;8.652;2023-03-01T05:44:06;26.10;;;12.63;;
11535;SDS011;5824;49.336;8.652;2023-03-01T05:46:31;25.70;;;13.60;;
11535;SDS011;5824;49.336;8.652;2023-03-01T05:48:57;25.10;;;13.00;;
11535;SDS011;5824;49.336;8.652;2023-03-01T05:51:22;23.77;;;14.17;;
11535;SDS011;5824;49.336;8.652;2023-03-01T05:53:48;28.90;;;15.67;;
11535;SDS011;5824;49.336;8.652;2023-03-01T05:56:13;27.63;;;15.53;;
11535;SDS011;5824;49.336;8.652;2023-03-01T05:58:39;27.90;;;14.47;;
11535;SDS011;5824;49.336;8.652;2023-03-01T06:01:04;24.70;;;13.70;;
11535;SDS011;5824;49.336;8.652;2023-03-01T06:03:30;25.03;;;13.67;;
11535;SDS011;5824;49.336;8.652;2023-03-01T06:05:56;26.40;;;13.23;;
11535;SDS011;5824;49.336;8.652;2023-03-01T06:08:22;27.87;;;14.03;;
11535;SDS011;5824;49.336;8.652;2023-03-01T06:10:49;25.67;;;13.80;;
11535;SDS011;5824;49.336;8.652;2023-03-01T06:13:14;21.23;;;12.60;;
11535;SDS011;5824;49.336;8.652;2023-03-01T06:15:40;26.90;;;13.90;;
11535;SDS011;5824;49.336;8.652;2023-03-01T06:18:05;25.70;;;13.40;;
11535;SDS011;5824;49.336;8.652;2023-03-01T06:20:31;20.97;;;12.87;;
11535;SDS011;5824;49.336;8.652;2023-03-01T06:22:56;24.40;;;13.70;;
11535;SDS011;5824;49.336;8.652;2023-03-01T06:25:23;26.33;;;14.13;;
11535;SDS011;5824;49.336;8.652;2023-03-01T06:27:50;23.63;;;13.50;;
11535;SDS011;5824;49.336;8.652;2023-03-01T06:30:18;23.37;;;13.43;;
11535;SDS011;5824;49.336;8.652;2023-03-01T06:32:44;27.43;;;13.17;;
11535;SDS011;5824;49.336;8.652;2023-03-01T06:35:11;27.17;;;13.73;;
11535;SDS011;5824;49.336;8.652;2023-03-01T06:37:38;22.10;;;12.80;;
11535;SDS011;5824;49.336;8.652;2023-03-01T06:40:04;25.90;;;13.73;;
11535;SDS011;5824;49.336;8.652;2023-03-01T06:42:40;22.03;;;12.53;;
11535;SDS011;5824;49.336;8.652;2023-03-01T06:45:09;24.47;;;13.27;;
11535;SDS011;5824;49.336;8.652;2023-03-01T06:47:35;24.93;;;13.47;;
11535;SDS011;5824;49.336;8.652;2023-03-01T06:50:01;21.60;;;12.83;;
11535;SDS011;5824;49.336;8.652;2023-03-01T06:52:27;25.47;;;13.97;;
11535;SDS011;5824;49.336;8.652;2023-03-01T06:54:53;25.10;;;13.90;;
11535;SDS011;5824;49.336;8.652;2023-03-01T06:57:18;22.70;;;13.40;;
11535;SDS011;5824;49.336;8.652;2023-03-01T06:59:44;23.90;;;13.50;;
11535;SDS011;5824;49.336;8.652;2023-03-01T07:02:10;23.00;;;13.50;;
11535;SDS011;5824;49.336;8.652;2023-03-01T07:04:36;21.13;;;12.57;;
11535;SDS011;5824;49.336;8.652;2023-03-01T07:07:02;26.47;;;13.67;;
11535;SDS011;5824;49.336;8.652;2023-03-01T07:09:27;25.77;;;14.00;;
11535;SDS011;5824;49.336;8.652;2023-03-01T07:11:53;20.13;;;12.90;;
11535;SDS011;5824;49.336;8.652;2023-03-01T07:14:19;21.83;;;13.80;;
11535;SDS011;5824;49.336;8.652;2023-03-01T07:16:44;22.50;;;13.00;;
11535;SDS011;5824;49.336;8.652;2023-03-01T07:19:10;24.80;;;14.13;;
11535;SDS011;5824;49.336;8.652;2023-03-01T07:21:36;24.50;;;14.00;;
11535;SDS011;5824;49.336;8.652;2023-03-01T07:24:04;22.03;;;13.03;;
11535;SDS011;5824;49.336;8.652;2023-03-01T07:26:31;25.05;;;14.40;;
11535;SDS011;5824;49.336;8.652;2023-03-01T07:28:58;22.37;;;14.30;;
11535;SDS011;5824;49.336;8.652;2023-03-01T07:31:24;25.60;;;13.73;;
11535;SDS011;5824;49.336;8.652;2023-03-01T07:33:52;23.30;;;13.10;;
11535;SDS011;5824;49.336;8.652;2023-03-01T07:36:18;23.30;;;13.67;;
11535;SDS011;5824;49.336;8.652;2023-03-01T07:38:44;24.80;;;14.30;;
11535;SDS011;5824;49.336;8.652;2023-03-01T07:41:09;24.87;;;14.43;;
11535;SDS011;5824;49.336;8.652;2023-03-01T07:43:35;24.37;;;13.30;;
11535;SDS011;5824;49.336;8.652;2023-03-01T07:46:01;23.73;;;13.70;;
11535;SDS011;5824;49.336;8.652;2023-03-01T07:48:28;24.33;;;13.17;;
11535;SDS011;5824;49.336;8.652;2023-03-01T07:50:54;22.73;;;13.30;;
11535;SDS011;5824;49.336;8.652;2023-03-01T07:53:23;22.10;;;13.50;;
11535;SDS011;5824;49.336;8.652;2023-03-01T07:55:49;22.90;;;13.40;;
11535;SDS011;5824;49.336;8.652;2023-03-01T07:58:14;26.20;;;14.57;;
11535;SDS011;5824;49.336;8.652;2023-03-01T08:00:40;21.00;;;12.23;;
11535;SDS011;5824;49.336;8.652;2023-03-01T08:03:05;27.70;;;14.70;;
11535;SDS011;5824;49.336;8.652;2023-03-01T08:05:31;23.20;;;14.53;;
11535;SDS011;5824;49.336;8.652;2023-03-01T08:07:57;20.60;;;13.23;;
11535;SDS011;5824;49.336;8.652;2023-03-01T08:10:22;22.80;;;13.70;;
11535;SDS011;5824;49.336;8.652;2023-03-01T08:12:50;25.53;;;14.00;;
11535;SDS011;5824;49.336;8.652;2023-03-01T08:15:16;25.27;;;14.17;;
11535;SDS011;5824;49.336;8.652;2023-03-01T08:17:43;21.27;;;13.77;;
11535;SDS011;5824;49.336;8.652;2023-03-01T08:20:09;22.50;;;14.00;;
11535;SDS011;5824;49.336;8.652;2023-03-01T08:22:37;26.33;;;14.20;;
11535;SDS011;5824;49.336;8.652;2023-03-01T08:25:02;20.63;;;13.40;;
11535;SDS011;5824;49.336;8.652;2023-03-01T08:27:28;24.77;;;14.20;;
11535;SDS011;5824;49.336;8.652;2023-03-01T08:29:54;24.70;;;13.77;;
11535;SDS011;5824;49.336;8.652;2023-03-01T08:32:19;20.97;;;12.60;;
11535;SDS011;5824;49.336;8.652;2023-03-01T08:34:48;24.10;;;13.90;;
11535;SDS011;5824;49.336;8.652;2023-03-01T08:37:13;19.37;;;13.03;;
11535;SDS011;5824;49.336;8.652;2023-03-01T08:39:39;26.17;;;14.67;;
11535;SDS011;5824;49.336;8.652;2023-03-01T08:42:04;25.70;;;13.20;;
11535;SDS011;5824;49.336;8.652;2023-03-01T08:44:30;22.27;;;12.80;;
11535;SDS011;5824;49.336;8.652;2023-03-01T08:46:55;27.70;;;14.23;;
11535;SDS011;5824;49.336;8.652;2023-03-01T08:49:22;27.00;;;14.13;;
11535;SDS011;5824;49.336;8.652;2023-03-01T08:51:48;26.13;;;13.97;;
11535;SDS011;5824;49.336;8.652;2023-03-01T08:54:20;25.70;;;13.77;;
11535;SDS011;5824;49.336;8.652;2023-03-01T08:56:46;23.73;;;13.90;;
11535;SDS011;5824;49.336;8.652;2023-03-01T08:59:13;24.53;;;13.67;;
11535;SDS011;5824;49.336;8.652;2023-03-01T09:01:40;20.57;;;14.00;;
11535;SDS011;5824;49.336;8.652;2023-03-01T09:04:08;22.00;;;14.17;;
11535;SDS011;5824;49.336;8.652;2023-03-01T09:06:34;21.53;;;14.97;;
11535;SDS011;5824;49.336;8.652;2023-03-01T09:09:00;24.00;;;15.50;;
11535;SDS011;5824;49.336;8.652;2023-03-01T09:11:27;23.10;;;15.90;;
11535;SDS011;5824;49.336;8.652;2023-03-01T09:13:53;22.30;;;16.93;;
11535;SDS011;5824;49.336;8.652;2023-03-01T09:16:19;25.50;;;19.00;;
11535;SDS011;5824;49.336;8.652;2023-03-01T09:18:56;28.63;;;20.47;;
11535;SDS011;5824;49.336;8.652;2023-03-01T09:21:22;27.10;;;20.37;;
11535;SDS011;5824;49.336;8.652;2023-03-01T09:23:48;27.97;;;21.27;;
11535;SDS011;5824;49.336;8.652;2023-03-01T09:26:15;29.10;;;21.00;;
11535;SDS011;5824;49.336;8.652;2023-03-01T09:28:44;26.17;;;21.00;;
11535;SDS011;5824;49.336;8.652;2023-03-01T09:31:10;27.17;;;20.10;;
11535;SDS011;5824;49.336;8.652;2023-03-01T09:33:37;28.03;;;20.33;;
11535;SDS011;5824;49.336;8.652;2023-03-01T09:36:05;27.73;;;20.47;;
11535;SDS011;5824;49.336;8.652;2023-03-01T09:38:32;28.03;;;20.63;;
11535;SDS011;5824;49.336;8.652;2023-03-01T09:40:58;28.27;;;22.10;;
11535;SDS011;5824;49.336;8.652;2023-03-01T09:43:27;27.27;;;21.60;;
11535;SDS011;5824;49.336;8.652;2023-03-01T09:45:59;29.87;;;21.00;;
11535;SDS011;5824;49.336;8.652;2023-03-01T09:48:32;26.40;;;20.23;;
11535;SDS011;5824;49.336;8.652;2023-03-01T09:51:06;28.10;;;20.90;;
11535;SDS011;5824;49.336;8.652;2023-03-01T09:53:39;28.50;;;21.37;;
11535;SDS011;5824;49.336;8.652;2023-03-01T09:56:05;27.80;;;21.37;;
11535;SDS011;5824;49.336;8.652;2023-03-01T10:01:44;25.27;;;21.23;;
11535;SDS011;5824;49.336;8.652;2023-03-01T10:09:46;27.20;;;21.20;;
11535;SDS011;5824;49.336;8.652;2023-03-01T10:12:20;24.80;;;20.57;;
11535;SDS011;5824;49.336;8.652;2023-03-01T10:14:57;25.87;;;20.10;;
11535;SDS011;5824;49.336;8.652;2023-03-01T10:17:47;24.80;;;20.67;;
11535;SDS011;5824;49.336;8.652;2023-03-01T10:20:30;27.50;;;21.23;;
11535;SDS011;5824;49.336;8.652;2023-03-01T10:23:11;26.67;;;21.57;;
11535;SDS011;5824;49.336;8.652;2023-03-01T10:28:48;24.70;;;19.87;;
11535;SDS011;5824;49.336;8.652;2023-03-01T10:31:25;26.03;;;21.03;;
11535;SDS011;5824;49.336;8.652;2023-03-01T10:34:02;22.13;;;19.50;;
11535;SDS011;5824;49.336;8.652;2023-03-01T10:36:32;29.00;;;20.13;;
11535;SDS011;5824;49.336;8.652;2023-03-01T10:38:59;24.03;;;20.23;;
11535;SDS011;5824;49.336;8.652;2023-03-01T10:41:28;24.67;;;20.60;;
11535;SDS011;5824;49.336;8.652;2023-03-01T10:43:55;22.67;;;19.80;;
11535;SDS011;5824;49.336;8.652;2023-03-01T10:46:26;22.73;;;19.93;;
11535;SDS011;5824;49.336;8.652;2023-03-01T10:51:40;24.03;;;20.73;;
11535;SDS011;5824;49.336;8.652;2023-03-01T10:54:18;23.53;;;19.63;;
11535;SDS011;5824;49.336;8.652;2023-03-01T10:56:48;24.30;;;20.27;;
11535;SDS011;5824;49.336;8.652;2023-03-01T10:59:37;21.77;;;19.10;;
11535;SDS011;5824;49.336;8.652;2023-03-01T11:02:13;22.13;;;19.50;;
11535;SDS011;5824;49.336;8.652;2023-03-01T11:07:26;21.70;;;18.77;;
11535;SDS011;5824;49.336;8.652;2023-03-01T11:09:51;21.13;;;18.83;;
11535;SDS011;5824;49.336;8.652;2023-03-01T11:12:17;22.27;;;19.03;;
11535;SDS011;5824;49.336;8.652;2023-03-01T11:14:50;21.73;;;17.40;;
11535;SDS011;5824;49.336;8.652;2023-03-01T11:17:21;22.13;;;18.10;;
11535;SDS011;5824;49.336;8.652;2023-03-01T11:22:46;23.07;;;18.00;;
11535;SDS011;5824;49.336;8.652;2023-03-01T11:25:15;20.23;;;17.93;;
11535;SDS011;5824;49.336;8.652;2023-03-01T11:27:44;22.15;;;17.17;;
11535;SDS011;5824;49.336;8.652;2023-03-01T11:30:18;21.70;;;18.50;;
11535;SDS011;5824;49.336;8.652;2023-03-01T11:35:41;21.25;;;18.90;;
11535;SDS011;5824;49.336;8.652;2023-03-01T11:38:25;22.80;;;19.67;;
11535;SDS011;5824;49.336;8.652;2023-03-01T11:48:49;23.97;;;18.10;;
11535;SDS011;5824;49.336;8.652;2023-03-01T11:54:13;21.03;;;17.47;;
11535;SDS011;5824;49.336;8.652;2023-03-01T11:56:56;20.30;;;17.60;;
11535;SDS011;5824;49.336;8.652;2023-03-01T12:05:09;21.60;;;17.15;;
11535;SDS011;5824;49.336;8.652;2023-03-01T12:07:50;20.05;;;16.77;;
11535;SDS011;5824;49.336;8.652;2023-03-01T12:10:27;19.70;;;17.42;;
11535;SDS011;5824;49.336;8.652;2023-03-01T12:21:09;21.25;;;16.23;;
11535;SDS011;5824;49.336;8.652;2023-03-01T12:24:08;19.13;;;16.58;;
11535;SDS011;5824;49.336;8.652;2023-03-01T12:27:05;21.73;;;16.90;;
11535;SDS011;5824;49.336;8.652;2023-03-01T12:49:06;15.80;;;13.40;;
11535;SDS011;5824;49.336;8.652;2023-03-01T12:52:06;16.50;;;14.38;;
11535;SDS011;5824;49.336;8.652;2023-03-01T12:54:37;15.98;;;13.90;;
11535;SDS011;5824;49.336;8.652;2023-03-01T12:57:09;17.15;;;14.85;;
11535;SDS011;5824;49.336;8.652;2023-03-01T12:59:58;16.88;;;15.07;;
11535;SDS011;5824;49.336;8.652;2023-03-01T13:02:35;22.05;;;15.82;;
11535;SDS011;5824;49.336;8.652;2023-03-01T13:08:36;17.07;;;14.37;;
11535;SDS011;5824;49.336;8.652;2023-03-01T13:10:58;16.43;;;13.83;;
11535;SDS011;5824;49.336;8.652;2023-03-01T13:13:28;15.57;;;13.05;;
11535;SDS011;5824;49.336;8.652;2023-03-01T13:15:54;17.02;;;14.52;;
11535;SDS011;5824;49.336;8.652;2023-03-01T13:20:48;21.43;;;16.63;;
11535;SDS011;5824;49.336;8.652;2023-03-01T13:30:59;16.20;;;13.80;;
11535;SDS011;5824;49.336;8.652;2023-03-01T13:35:51;18.57;;;15.13;;
11535;SDS011;5824;49.336;8.652;2023-03-01T13:41:48;18.70;;;14.20;;
11535;SDS011;5824;49.336;8.652;2023-03-01T13:46:47;16.10;;;13.87;;
11535;SDS011;5824;49.336;8.652;2023-03-01T13:49:14;17.38;;;14.63;;
11535;SDS011;5824;49.336;8.652;2023-03-01T13:51:42;16.38;;;14.25;;
11535;SDS011;5824;49.336;8.652;2023-03-01T13:54:12;16.55;;;14.18;;
11535;SDS011;5824;49.336;8.652;2023-03-01T13:56:40;17.37;;;14.90;;
11535;SDS011;5824;49.336;8.652;2023-03-01T13:59:20;20.00;;;15.87;;
11535;SDS011;5824;49.336;8.652;2023-03-01T14:01:54;20.13;;;15.63;;
11535;SDS011;5824;49.336;8.652;2023-03-01T14:04:22;19.10;;;15.50;;
11535;SDS011;5824;49.336;8.652;2023-03-01T14:06:51;19.87;;;14.60;;
11535;SDS011;5824;49.336;8.652;2023-03-01T14:09:33;18.17;;;14.77;;
11535;SDS011;5824;49.336;8.652;2023-03-01T14:14:59;19.33;;;15.03;;
11535;SDS011;5824;49.336;8.652;2023-03-01T14:20:11;25.30;;;14.77;;
11535;SDS011;5824;49.336;8.652;2023-03-01T14:23:08;18.43;;;14.40;;
11535;SDS011;5824;49.336;8.652;2023-03-01T14:25:38;21.07;;;15.93;;
11535;SDS011;5824;49.336;8.652;2023-03-01T14:30:44;21.07;;;15.87;;
11535;SDS011;5824;49.336;8.652;2023-03-01T14:33:19;20.17;;;15.57;;
11535;SDS011;5824;49.336;8.652;2023-03-01T14:35:52;19.20;;;13.90;;
11535;SDS011;5824;49.336;8.652;2023-03-01T14:38:21;20.37;;;15.60;;
11535;SDS011;5824;49.336;8.652;2023-03-01T14:44:06;20.23;;;14.07;;
11535;SDS011;5824;49.336;8.652;2023-03-01T14:46:38;20.97;;;14.50;;
11535;SDS011;5824;49.336;8.652;2023-03-01T14:49:12;24.20;;;13.70;;
11535;SDS011;5824;49.336;8.652;2023-03-01T14:51:53;19.20;;;12.90;;
11535;SDS011;5824;49.336;8.652;2023-03-01T14:54:28;15.27;;;11.67;;
11535;SDS011;5824;49.336;8.652;2023-03-01T14:57:02;15.80;;;11.57;;
11535;SDS011;5824;49.336;8.652;2023-03-01T14:59:28;18.07;;;13.47;;
11535;SDS011;5824;49.336;8.652;2023-03-01T15:01:54;17.60;;;13.03;;
11535;SDS011;5824;49.336;8.652;2023-03-01T15:04:22;20.93;;;14.27;;
11535;SDS011;5824;49.336;8.652;2023-03-01T15:06:51;18.17;;;11.70;;
11535;SDS011;5824;49.336;8.652;2023-03-01T15:09:17;16.77;;;11.80;;
11535;SDS011;5824;49.336;8.652;2023-03-01T15:11:44;14.50;;;10.93;;
11535;SDS011;5824;49.336;8.652;2023-03-01T15:17:15;22.23;;;11.97;;
11535;SDS011;5824;49.336;8.652;2023-03-01T15:19:45;16.80;;;11.67;;
11535;SDS011;5824;49.336;8.652;2023-03-01T15:22:14;18.40;;;12.57;;
11535;SDS011;5824;49.336;8.652;2023-03-01T15:24:40;16.73;;;11.27;;
11535;SDS011;5824;49.336;8.652;2023-03-01T15:27:17;16.00;;;11.83;;
11535;SDS011;5824;49.336;8.652;2023-03-01T15:29:53;20.67;;;11.37;;
11535;SDS011;5824;49.336;8.652;2023-03-01T15:34:57;23.03;;;11.80;;
11535;SDS011;5824;49.336;8.652;2023-03-01T15:40:17;16.80;;;12.20;;
11535;SDS011;5824;49.336;8.652;2023-03-01T15:42:56;15.50;;;12.00;;
11535;SDS011;5824;49.336;8.652;2023-03-01T15:45:27;18.80;;;12.97;;
11535;SDS011;5824;49.336;8.652;2023-03-01T15:47:58;15.90;;;11.43;;
11535;SDS011;5824;49.336;8.652;2023-03-01T15:50:29;20.73;;;12.17;;
11535;SDS011;5824;49.336;8.652;2023-03-01T15:52:58;17.57;;;11.40;;
11535;SDS011;5824;49.336;8.652;2023-03-01T15:55:25;18.53;;;12.30;;
11535;SDS011;5824;49.336;8.652;2023-03-01T15:58:01;18.50;;;11.10;;
11535;SDS011;5824;49.336;8.652;2023-03-01T16:00:35;17.23;;;11.30;;
11535;SDS011;5824;49.336;8.652;2023-03-01T16:03:01;19.10;;;12.20;;
11535;SDS011;5824;49.336;8.652;2023-03-01T16:05:27;17.47;;;10.70;;
11535;SDS011;5824;49.336;8.652;2023-03-01T16:07:55;16.97;;;11.10;;
11535;SDS011;5824;49.336;8.652;2023-03-01T16:10:21;17.37;;;11.63;;
11535;SDS011;5824;49.336;8.652;2023-03-01T16:12:47;17.70;;;12.27;;
11535;SDS011;5824;49.336;8.652;2023-03-01T16:15:17;19.60;;;11.83;;
11535;SDS011;5824;49.336;8.652;2023-03-01T16:17:52;18.90;;;11.57;;
11535;SDS011;5824;49.336;8.652;2023-03-01T16:20:18;17.80;;;11.10;;
11535;SDS011;5824;49.336;8.652;2023-03-01T16:22:45;18.97;;;12.70;;
11535;SDS011;5824;49.336;8.652;2023-03-01T16:25:11;17.60;;;10.73;;
11535;SDS011;5824;49.336;8.652;2023-03-01T16:27:43;20.43;;;12.40;;
11535;SDS011;5824;49.336;8.652;2023-03-01T16:30:11;20.00;;;11.80;;
11535;SDS011;5824;49.336;8.652;2023-03-01T16:32:38;19.33;;;12.77;;
11535;SDS011;5824;49.336;8.652;2023-03-01T16:35:04;18.17;;;11.80;;
11535;SDS011;5824;49.336;8.652;2023-03-01T16:37:34;19.97;;;11.93;;
11535;SDS011;5824;49.336;8.652;2023-03-01T16:40:00;18.30;;;11.30;;